sensor_id;sensor_type;location;lat;lon;timestamp;P1;durP1;ratioP1;P2;durP2;ratioP2
18159;SDS011;9205;52.032;4.314;2023-04-30T00:02:26;15.23;;;7.07;;
18159;SDS011;9205;52.032;4.314;2023-04-30T00:04:53;16.33;;;7.73;;
18159;SDS011;9205;52.032;4.314;2023-04-30T00:07:20;17.37;;;7.60;;
18159;SDS011;9205;52.032;4.314;2023-04-30T00:09:48;14.50;;;7.70;;
18159;SDS011;9205;52.032;4.314;2023-04-30T00:12:15;16.53;;;7.77;;
18159;SDS011;9205;52.032;4.314;2023-04-30T00:14:44;14.30;;;7.40;;
18159;SDS011;9205;52.032;4.314;2023-04-30T00:17:11;13.33;;;7.30;;
18159;SDS011;9205;52.032;4.314;2023-04-30T00:19:38;12.37;;;6.67;;
18159;SDS011;9205;52.032;4.314;2023-04-30T00:22:05;12.70;;;6.93;;
18159;SDS011;9205;52.032;4.314;2023-04-30T00:24:32;19.10;;;7.30;;
18159;SDS011;9205;52.032;4.314;2023-04-30T00:26:59;16.20;;;7.50;;
18159;SDS011;9205;52.032;4.314;2023-04-30T00:29:26;13.73;;;7.10;;
18159;SDS011;9205;52.032;4.314;2023-04-30T00:31:55;12.53;;;6.13;;
18159;SDS011;9205;52.032;4.314;2023-04-30T00:34:22;13.03;;;7.30;;
18159;SDS011;9205;52.032;4.314;2023-04-30T00:36:49;16.83;;;7.17;;
18159;SDS011;9205;52.032;4.314;2023-04-30T00:39:17;17.40;;;6.77;;
18159;SDS011;9205;52.032;4.314;2023-04-30T00:41:44;21.27;;;7.73;;
18159;SDS011;9205;52.032;4.314;2023-04-30T00:44:11;12.60;;;6.60;;
18159;SDS011;9205;52.032;4.314;2023-04-30T00:46:38;14.30;;;7.10;;
18159;SDS011;9205;52.032;4.314;2023-04-30T00:49:07;15.47;;;7.00;;
18159;SDS011;9205;52.032;4.314;2023-04-30T00:51:34;14.00;;;6.93;;
18159;SDS011;9205;52.032;4.314;2023-04-30T00:54:03;14.73;;;7.57;;
18159;SDS011;9205;52.032;4.314;2023-04-30T00:56:31;13.03;;;6.67;;
18159;SDS011;9205;52.032;4.314;2023-04-30T00:58:59;14.53;;;6.87;;
18159;SDS011;9205;52.032;4.314;2023-04-30T01:01:26;15.00;;;6.80;;
18159;SDS011;9205;52.032;4.314;2023-04-30T01:03:54;15.50;;;6.83;;
18159;SDS011;9205;52.032;4.314;2023-04-30T01:06:22;14.37;;;6.17;;
18159;SDS011;9205;52.032;4.314;2023-04-30T01:08:52;15.03;;;6.70;;
18159;SDS011;9205;52.032;4.314;2023-04-30T01:11:24;17.13;;;7.40;;
18159;SDS011;9205;52.032;4.314;2023-04-30T01:14:03;14.07;;;6.40;;
18159;SDS011;9205;52.032;4.314;2023-04-30T01:16:39;16.80;;;7.63;;
18159;SDS011;9205;52.032;4.314;2023-04-30T01:19:17;13.20;;;6.33;;
18159;SDS011;9205;52.032;4.314;2023-04-30T01:22:02;16.00;;;6.73;;
18159;SDS011;9205;52.032;4.314;2023-04-30T01:24:42;16.77;;;6.50;;
18159;SDS011;9205;52.032;4.314;2023-04-30T01:27:30;15.27;;;7.07;;
18159;SDS011;9205;52.032;4.314;2023-04-30T01:30:32;14.90;;;7.00;;
18159;SDS011;9205;52.032;4.314;2023-04-30T01:33:01;10.77;;;6.07;;
18159;SDS011;9205;52.032;4.314;2023-04-30T01:35:34;15.93;;;7.03;;
18159;SDS011;9205;52.032;4.314;2023-04-30T01:38:27;16.53;;;6.60;;
18159;SDS011;9205;52.032;4.314;2023-04-30T01:41:12;14.40;;;7.33;;
18159;SDS011;9205;52.032;4.314;2023-04-30T01:43:54;11.83;;;6.40;;
18159;SDS011;9205;52.032;4.314;2023-04-30T01:46:32;14.43;;;6.77;;
18159;SDS011;9205;52.032;4.314;2023-04-30T01:49:06;15.37;;;6.90;;
18159;SDS011;9205;52.032;4.314;2023-04-30T01:51:52;19.40;;;8.03;;
18159;SDS011;9205;52.032;4.314;2023-04-30T01:54:29;14.43;;;7.03;;
18159;SDS011;9205;52.032;4.314;2023-04-30T01:57:06;15.07;;;7.97;;
18159;SDS011;9205;52.032;4.314;2023-04-30T01:59:39;20.40;;;7.73;;
18159;SDS011;9205;52.032;4.314;2023-04-30T02:02:11;16.17;;;6.97;;
18159;SDS011;9205;52.032;4.314;2023-04-30T02:04:39;18.20;;;7.83;;
18159;SDS011;9205;52.032;4.314;2023-04-30T02:07:06;15.80;;;7.53;;
18159;SDS011;9205;52.032;4.314;2023-04-30T02:09:33;14.67;;;7.43;;
18159;SDS011;9205;52.032;4.314;2023-04-30T02:12:01;16.13;;;7.40;;
18159;SDS011;9205;52.032;4.314;2023-04-30T02:14:29;14.93;;;7.20;;
18159;SDS011;9205;52.032;4.314;2023-04-30T02:16:57;14.63;;;7.63;;
18159;SDS011;9205;52.032;4.314;2023-04-30T02:19:25;14.40;;;7.80;;
18159;SDS011;9205;52.032;4.314;2023-04-30T02:21:52;15.97;;;7.50;;
18159;SDS011;9205;52.032;4.314;2023-04-30T02:24:19;16.50;;;7.23;;
18159;SDS011;9205;52.032;4.314;2023-04-30T02:26:46;16.93;;;7.60;;
18159;SDS011;9205;52.032;4.314;2023-04-30T02:29:14;18.00;;;7.77;;
18159;SDS011;9205;52.032;4.314;2023-04-30T02:31:41;13.83;;;6.97;;
18159;SDS011;9205;52.032;4.314;2023-04-30T02:34:09;14.60;;;6.80;;
18159;SDS011;9205;52.032;4.314;2023-04-30T02:36:38;18.70;;;7.87;;
18159;SDS011;9205;52.032;4.314;2023-04-30T02:39:05;14.27;;;7.23;;
18159;SDS011;9205;52.032;4.314;2023-04-30T02:41:33;15.93;;;7.23;;
18159;SDS011;9205;52.032;4.314;2023-04-30T02:44:00;16.80;;;7.60;;
18159;SDS011;9205;52.032;4.314;2023-04-30T02:46:27;16.47;;;7.33;;
18159;SDS011;9205;52.032;4.314;2023-04-30T02:48:54;14.97;;;7.60;;
18159;SDS011;9205;52.032;4.314;2023-04-30T02:51:22;13.03;;;7.00;;
18159;SDS011;9205;52.032;4.314;2023-04-30T02:53:50;16.87;;;6.80;;
18159;SDS011;9205;52.032;4.314;2023-04-30T02:56:17;17.83;;;7.57;;
18159;SDS011;9205;52.032;4.314;2023-04-30T02:58:45;11.30;;;6.57;;
18159;SDS011;9205;52.032;4.314;2023-04-30T03:01:12;15.50;;;7.27;;
18159;SDS011;9205;52.032;4.314;2023-04-30T03:03:40;15.97;;;7.20;;
18159;SDS011;9205;52.032;4.314;2023-04-30T03:06:07;19.43;;;7.63;;
18159;SDS011;9205;52.032;4.314;2023-04-30T03:08:34;16.80;;;7.00;;
18159;SDS011;9205;52.032;4.314;2023-04-30T03:11:03;12.93;;;6.60;;
18159;SDS011;9205;52.032;4.314;2023-04-30T03:13:30;17.33;;;7.57;;
18159;SDS011;9205;52.032;4.314;2023-04-30T03:15:57;13.70;;;6.37;;
18159;SDS011;9205;52.032;4.314;2023-04-30T03:18:25;15.40;;;7.10;;
18159;SDS011;9205;52.032;4.314;2023-04-30T03:20:53;15.67;;;6.90;;
18159;SDS011;9205;52.032;4.314;2023-04-30T03:23:20;16.13;;;7.73;;
18159;SDS011;9205;52.032;4.314;2023-04-30T03:25:47;13.33;;;7.07;;
18159;SDS011;9205;52.032;4.314;2023-04-30T03:28:16;14.97;;;7.50;;
18159;SDS011;9205;52.032;4.314;2023-04-30T03:30:43;14.23;;;7.60;;
18159;SDS011;9205;52.032;4.314;2023-04-30T03:33:10;16.03;;;7.37;;
18159;SDS011;9205;52.032;4.314;2023-04-30T03:35:38;19.43;;;7.73;;
18159;SDS011;9205;52.032;4.314;2023-04-30T03:38:05;16.60;;;7.30;;
18159;SDS011;9205;52.032;4.314;2023-04-30T03:40:32;14.80;;;6.50;;
18159;SDS011;9205;52.032;4.314;2023-04-30T03:42:59;14.83;;;7.57;;
18159;SDS011;9205;52.032;4.314;2023-04-30T03:45:28;17.73;;;7.90;;
18159;SDS011;9205;52.032;4.314;2023-04-30T03:47:56;14.53;;;6.97;;
18159;SDS011;9205;52.032;4.314;2023-04-30T03:50:23;13.73;;;7.43;;
18159;SDS011;9205;52.032;4.314;2023-04-30T03:52:51;13.40;;;6.83;;
18159;SDS011;9205;52.032;4.314;2023-04-30T03:55:18;14.07;;;7.00;;
18159;SDS011;9205;52.032;4.314;2023-04-30T03:57:45;14.80;;;6.80;;
18159;SDS011;9205;52.032;4.314;2023-04-30T04:00:13;16.63;;;7.03;;
18159;SDS011;9205;52.032;4.314;2023-04-30T04:02:47;16.50;;;7.03;;
18159;SDS011;9205;52.032;4.314;2023-04-30T04:05:14;12.63;;;6.50;;
18159;SDS011;9205;52.032;4.314;2023-04-30T04:07:43;20.03;;;7.77;;
18159;SDS011;9205;52.032;4.314;2023-04-30T04:10:10;16.40;;;7.00;;
18159;SDS011;9205;52.032;4.314;2023-04-30T04:12:37;15.40;;;6.83;;
18159;SDS011;9205;52.032;4.314;2023-04-30T04:15:05;13.03;;;6.73;;
18159;SDS011;9205;52.032;4.314;2023-04-30T04:17:34;16.17;;;7.00;;
18159;SDS011;9205;52.032;4.314;2023-04-30T04:20:03;11.70;;;6.40;;
18159;SDS011;9205;52.032;4.314;2023-04-30T04:22:33;15.03;;;6.60;;
18159;SDS011;9205;52.032;4.314;2023-04-30T04:25:00;14.77;;;7.10;;
18159;SDS011;9205;52.032;4.314;2023-04-30T04:27:29;15.77;;;6.87;;
18159;SDS011;9205;52.032;4.314;2023-04-30T04:29:56;14.33;;;7.10;;
18159;SDS011;9205;52.032;4.314;2023-04-30T04:32:24;18.50;;;7.17;;
18159;SDS011;9205;52.032;4.314;2023-04-30T04:34:51;16.07;;;7.20;;
18159;SDS011;9205;52.032;4.314;2023-04-30T04:37:20;13.43;;;6.73;;
18159;SDS011;9205;52.032;4.314;2023-04-30T04:39:48;16.97;;;6.70;;
18159;SDS011;9205;52.032;4.314;2023-04-30T04:42:15;18.00;;;7.07;;
18159;SDS011;9205;52.032;4.314;2023-04-30T04:44:43;17.23;;;8.07;;
18159;SDS011;9205;52.032;4.314;2023-04-30T04:47:11;13.57;;;7.03;;
18159;SDS011;9205;52.032;4.314;2023-04-30T04:49:38;12.73;;;7.07;;
18159;SDS011;9205;52.032;4.314;2023-04-30T04:52:07;14.33;;;6.93;;
18159;SDS011;9205;52.032;4.314;2023-04-30T04:54:36;16.80;;;7.33;;
18159;SDS011;9205;52.032;4.314;2023-04-30T04:57:03;13.23;;;6.33;;
18159;SDS011;9205;52.032;4.314;2023-04-30T04:59:31;12.80;;;6.70;;
18159;SDS011;9205;52.032;4.314;2023-04-30T05:01:58;12.93;;;6.40;;
18159;SDS011;9205;52.032;4.314;2023-04-30T05:04:25;14.00;;;6.87;;
18159;SDS011;9205;52.032;4.314;2023-04-30T05:06:54;12.13;;;6.40;;
18159;SDS011;9205;52.032;4.314;2023-04-30T05:09:21;12.07;;;6.07;;
18159;SDS011;9205;52.032;4.314;2023-04-30T05:11:49;15.87;;;7.57;;
18159;SDS011;9205;52.032;4.314;2023-04-30T05:14:17;16.13;;;6.63;;
18159;SDS011;9205;52.032;4.314;2023-04-30T05:16:45;14.77;;;7.13;;
18159;SDS011;9205;52.032;4.314;2023-04-30T05:19:12;13.60;;;6.90;;
18159;SDS011;9205;52.032;4.314;2023-04-30T05:21:39;13.50;;;6.50;;
18159;SDS011;9205;52.032;4.314;2023-04-30T05:24:06;11.70;;;6.10;;
18159;SDS011;9205;52.032;4.314;2023-04-30T05:26:33;13.37;;;6.40;;
18159;SDS011;9205;52.032;4.314;2023-04-30T05:29:02;13.80;;;6.50;;
18159;SDS011;9205;52.032;4.314;2023-04-30T05:31:29;15.07;;;6.63;;
18159;SDS011;9205;52.032;4.314;2023-04-30T05:33:56;11.10;;;6.53;;
18159;SDS011;9205;52.032;4.314;2023-04-30T05:36:23;10.97;;;6.20;;
18159;SDS011;9205;52.032;4.314;2023-04-30T05:38:51;14.17;;;6.30;;
18159;SDS011;9205;52.032;4.314;2023-04-30T05:41:18;11.40;;;5.90;;
18159;SDS011;9205;52.032;4.314;2023-04-30T05:43:46;9.97;;;5.73;;
18159;SDS011;9205;52.032;4.314;2023-04-30T05:46:15;11.80;;;5.60;;
18159;SDS011;9205;52.032;4.314;2023-04-30T05:48:42;8.47;;;5.33;;
18159;SDS011;9205;52.032;4.314;2023-04-30T05:51:09;13.27;;;5.40;;
18159;SDS011;9205;52.032;4.314;2023-04-30T05:53:36;9.87;;;5.43;;
18159;SDS011;9205;52.032;4.314;2023-04-30T05:56:04;12.27;;;5.23;;
18159;SDS011;9205;52.032;4.314;2023-04-30T05:58:32;10.10;;;4.90;;
18159;SDS011;9205;52.032;4.314;2023-04-30T06:01:00;7.90;;;4.70;;
18159;SDS011;9205;52.032;4.314;2023-04-30T06:03:28;10.00;;;5.13;;
18159;SDS011;9205;52.032;4.314;2023-04-30T06:05:56;8.93;;;5.30;;
18159;SDS011;9205;52.032;4.314;2023-04-30T06:08:23;10.93;;;5.47;;
18159;SDS011;9205;52.032;4.314;2023-04-30T06:10:50;11.83;;;4.60;;
18159;SDS011;9205;52.032;4.314;2023-04-30T06:13:18;8.33;;;4.90;;
18159;SDS011;9205;52.032;4.314;2023-04-30T06:15:45;9.20;;;4.80;;
18159;SDS011;9205;52.032;4.314;2023-04-30T06:18:12;8.77;;;4.83;;
18159;SDS011;9205;52.032;4.314;2023-04-30T06:20:41;8.33;;;4.43;;
18159;SDS011;9205;52.032;4.314;2023-04-30T06:23:08;8.50;;;5.03;;
18159;SDS011;9205;52.032;4.314;2023-04-30T06:25:35;8.97;;;4.43;;
18159;SDS011;9205;52.032;4.314;2023-04-30T06:28:03;8.57;;;4.80;;
18159;SDS011;9205;52.032;4.314;2023-04-30T06:30:32;7.27;;;4.40;;
18159;SDS011;9205;52.032;4.314;2023-04-30T06:32:59;8.90;;;4.80;;
18159;SDS011;9205;52.032;4.314;2023-04-30T06:35:26;9.07;;;4.60;;
18159;SDS011;9205;52.032;4.314;2023-04-30T06:37:55;8.83;;;4.60;;
18159;SDS011;9205;52.032;4.314;2023-04-30T06:40:22;7.97;;;4.77;;
18159;SDS011;9205;52.032;4.314;2023-04-30T06:42:49;7.53;;;4.33;;
18159;SDS011;9205;52.032;4.314;2023-04-30T06:45:18;10.10;;;4.30;;
18159;SDS011;9205;52.032;4.314;2023-04-30T06:47:46;6.83;;;4.20;;
18159;SDS011;9205;52.032;4.314;2023-04-30T06:50:13;8.97;;;4.77;;
18159;SDS011;9205;52.032;4.314;2023-04-30T06:52:40;7.47;;;4.07;;
18159;SDS011;9205;52.032;4.314;2023-04-30T06:55:10;7.20;;;4.63;;
18159;SDS011;9205;52.032;4.314;2023-04-30T06:57:37;9.63;;;4.50;;
18159;SDS011;9205;52.032;4.314;2023-04-30T07:00:05;9.30;;;4.57;;
18159;SDS011;9205;52.032;4.314;2023-04-30T07:02:33;8.10;;;4.63;;
18159;SDS011;9205;52.032;4.314;2023-04-30T07:05:01;9.93;;;4.87;;
18159;SDS011;9205;52.032;4.314;2023-04-30T07:07:28;7.23;;;3.93;;
18159;SDS011;9205;52.032;4.314;2023-04-30T07:09:56;8.13;;;3.87;;
18159;SDS011;9205;52.032;4.314;2023-04-30T07:12:25;8.93;;;4.20;;
18159;SDS011;9205;52.032;4.314;2023-04-30T07:14:52;8.40;;;3.87;;
18159;SDS011;9205;52.032;4.314;2023-04-30T07:17:19;10.17;;;4.70;;
18159;SDS011;9205;52.032;4.314;2023-04-30T07:19:46;7.63;;;4.20;;
18159;SDS011;9205;52.032;4.314;2023-04-30T07:22:13;10.10;;;4.33;;
18159;SDS011;9205;52.032;4.314;2023-04-30T07:24:40;11.77;;;4.60;;
18159;SDS011;9205;52.032;4.314;2023-04-30T07:27:08;7.03;;;3.97;;
18159;SDS011;9205;52.032;4.314;2023-04-30T07:29:36;7.00;;;4.13;;
18159;SDS011;9205;52.032;4.314;2023-04-30T07:32:03;6.70;;;4.10;;
18159;SDS011;9205;52.032;4.314;2023-04-30T07:34:31;12.40;;;4.73;;
18159;SDS011;9205;52.032;4.314;2023-04-30T07:36:58;8.60;;;4.80;;
18159;SDS011;9205;52.032;4.314;2023-04-30T07:39:26;9.03;;;4.43;;
18159;SDS011;9205;52.032;4.314;2023-04-30T07:41:53;9.93;;;4.40;;
18159;SDS011;9205;52.032;4.314;2023-04-30T07:44:20;10.57;;;4.67;;
18159;SDS011;9205;52.032;4.314;2023-04-30T07:46:49;7.57;;;4.20;;
18159;SDS011;9205;52.032;4.314;2023-04-30T07:49:16;7.80;;;4.13;;
18159;SDS011;9205;52.032;4.314;2023-04-30T07:51:43;6.80;;;3.73;;
18159;SDS011;9205;52.032;4.314;2023-04-30T07:54:11;7.17;;;4.10;;
18159;SDS011;9205;52.032;4.314;2023-04-30T07:56:39;9.10;;;4.60;;
18159;SDS011;9205;52.032;4.314;2023-04-30T07:59:06;7.67;;;4.00;;
18159;SDS011;9205;52.032;4.314;2023-04-30T08:01:34;9.03;;;4.60;;
18159;SDS011;9205;52.032;4.314;2023-04-30T08:04:02;7.67;;;4.17;;
18159;SDS011;9205;52.032;4.314;2023-04-30T08:06:31;8.50;;;3.83;;
18159;SDS011;9205;52.032;4.314;2023-04-30T08:08:58;9.20;;;4.67;;
18159;SDS011;9205;52.032;4.314;2023-04-30T08:11:25;6.53;;;3.83;;
18159;SDS011;9205;52.032;4.314;2023-04-30T08:13:52;7.03;;;3.93;;
18159;SDS011;9205;52.032;4.314;2023-04-30T08:16:20;9.07;;;4.07;;
18159;SDS011;9205;52.032;4.314;2023-04-30T08:18:47;8.53;;;3.83;;
18159;SDS011;9205;52.032;4.314;2023-04-30T08:21:15;6.80;;;3.77;;
18159;SDS011;9205;52.032;4.314;2023-04-30T08:23:43;3.60;;;2.87;;
18159;SDS011;9205;52.032;4.314;2023-04-30T08:26:10;8.87;;;3.70;;
18159;SDS011;9205;52.032;4.314;2023-04-30T08:28:37;8.50;;;3.40;;
18159;SDS011;9205;52.032;4.314;2023-04-30T08:31:04;7.53;;;3.57;;
18159;SDS011;9205;52.032;4.314;2023-04-30T08:33:35;7.07;;;4.10;;
18159;SDS011;9205;52.032;4.314;2023-04-30T08:36:02;9.07;;;3.37;;
18159;SDS011;9205;52.032;4.314;2023-04-30T08:38:31;6.53;;;3.20;;
18159;SDS011;9205;52.032;4.314;2023-04-30T08:41:01;5.67;;;3.40;;
18159;SDS011;9205;52.032;4.314;2023-04-30T08:43:36;5.73;;;3.07;;
18159;SDS011;9205;52.032;4.314;2023-04-30T08:46:04;5.60;;;2.83;;
18159;SDS011;9205;52.032;4.314;2023-04-30T08:48:32;5.07;;;3.00;;
18159;SDS011;9205;52.032;4.314;2023-04-30T08:50:59;5.90;;;3.63;;
18159;SDS011;9205;52.032;4.314;2023-04-30T08:53:28;9.33;;;4.00;;
18159;SDS011;9205;52.032;4.314;2023-04-30T08:55:57;8.37;;;3.40;;
18159;SDS011;9205;52.032;4.314;2023-04-30T08:58:24;5.03;;;3.13;;
18159;SDS011;9205;52.032;4.314;2023-04-30T09:00:51;6.07;;;3.43;;
18159;SDS011;9205;52.032;4.314;2023-04-30T09:03:19;5.23;;;3.03;;
18159;SDS011;9205;52.032;4.314;2023-04-30T09:05:47;4.10;;;2.70;;
18159;SDS011;9205;52.032;4.314;2023-04-30T09:08:17;5.80;;;2.87;;
18159;SDS011;9205;52.032;4.314;2023-04-30T09:11:13;4.03;;;2.40;;
18159;SDS011;9205;52.032;4.314;2023-04-30T09:13:50;4.50;;;2.47;;
18159;SDS011;9205;52.032;4.314;2023-04-30T09:16:18;4.27;;;2.83;;
18159;SDS011;9205;52.032;4.314;2023-04-30T09:18:46;4.33;;;2.27;;
18159;SDS011;9205;52.032;4.314;2023-04-30T09:21:15;2.70;;;2.00;;
18159;SDS011;9205;52.032;4.314;2023-04-30T09:23:55;4.47;;;2.20;;
18159;SDS011;9205;52.032;4.314;2023-04-30T09:26:29;4.10;;;2.37;;
18159;SDS011;9205;52.032;4.314;2023-04-30T09:28:59;5.80;;;2.80;;
18159;SDS011;9205;52.032;4.314;2023-04-30T09:31:32;3.33;;;2.30;;
18159;SDS011;9205;52.032;4.314;2023-04-30T09:34:00;4.43;;;2.13;;
18159;SDS011;9205;52.032;4.314;2023-04-30T09:36:27;5.10;;;2.63;;
18159;SDS011;9205;52.032;4.314;2023-04-30T09:38:55;3.67;;;2.53;;
18159;SDS011;9205;52.032;4.314;2023-04-30T09:41:32;5.73;;;2.87;;
18159;SDS011;9205;52.032;4.314;2023-04-30T09:44:00;5.57;;;3.27;;
18159;SDS011;9205;52.032;4.314;2023-04-30T09:46:31;3.73;;;2.50;;
18159;SDS011;9205;52.032;4.314;2023-04-30T09:49:02;4.27;;;2.37;;
18159;SDS011;9205;52.032;4.314;2023-04-30T09:51:31;3.10;;;2.20;;
18159;SDS011;9205;52.032;4.314;2023-04-30T09:54:00;3.40;;;2.47;;
18159;SDS011;9205;52.032;4.314;2023-04-30T09:56:29;5.03;;;2.70;;
18159;SDS011;9205;52.032;4.314;2023-04-30T09:59:02;4.03;;;2.70;;
18159;SDS011;9205;52.032;4.314;2023-04-30T10:01:33;4.07;;;2.47;;
18159;SDS011;9205;52.032;4.314;2023-04-30T10:04:02;4.47;;;2.37;;
18159;SDS011;9205;52.032;4.314;2023-04-30T10:06:30;4.73;;;2.67;;
18159;SDS011;9205;52.032;4.314;2023-04-30T10:08:59;5.03;;;2.50;;
18159;SDS011;9205;52.032;4.314;2023-04-30T10:11:31;3.70;;;2.50;;
18159;SDS011;9205;52.032;4.314;2023-04-30T10:14:07;2.80;;;1.30;;
18159;SDS011;9205;52.032;4.314;2023-04-30T10:16:41;1.40;;;1.20;;
18159;SDS011;9205;52.032;4.314;2023-04-30T10:19:17;4.20;;;1.80;;
18159;SDS011;9205;52.032;4.314;2023-04-30T10:21:48;3.03;;;1.60;;
18159;SDS011;9205;52.032;4.314;2023-04-30T10:24:16;3.27;;;2.10;;
18159;SDS011;9205;52.032;4.314;2023-04-30T10:26:47;3.40;;;2.20;;
18159;SDS011;9205;52.032;4.314;2023-04-30T10:29:27;3.83;;;2.60;;
18159;SDS011;9205;52.032;4.314;2023-04-30T10:31:54;4.93;;;2.23;;
18159;SDS011;9205;52.032;4.314;2023-04-30T10:34:25;5.20;;;2.30;;
18159;SDS011;9205;52.032;4.314;2023-04-30T10:37:10;3.47;;;2.00;;
18159;SDS011;9205;52.032;4.314;2023-04-30T10:39:47;3.40;;;1.80;;
18159;SDS011;9205;52.032;4.314;2023-04-30T10:42:16;5.00;;;2.57;;
18159;SDS011;9205;52.032;4.314;2023-04-30T10:44:45;4.43;;;2.57;;
18159;SDS011;9205;52.032;4.314;2023-04-30T10:47:12;2.87;;;2.20;;
18159;SDS011;9205;52.032;4.314;2023-04-30T10:49:44;5.73;;;2.73;;
18159;SDS011;9205;52.032;4.314;2023-04-30T10:52:13;3.83;;;2.70;;
18159;SDS011;9205;52.032;4.314;2023-04-30T10:54:52;4.23;;;2.70;;
18159;SDS011;9205;52.032;4.314;2023-04-30T10:57:19;3.93;;;2.60;;
18159;SDS011;9205;52.032;4.314;2023-04-30T10:59:52;4.70;;;2.70;;
18159;SDS011;9205;52.032;4.314;2023-04-30T11:02:52;4.37;;;2.73;;
18159;SDS011;9205;52.032;4.314;2023-04-30T11:05:33;4.30;;;2.90;;
18159;SDS011;9205;52.032;4.314;2023-04-30T11:08:04;3.63;;;2.60;;
18159;SDS011;9205;52.032;4.314;2023-04-30T11:10:36;4.67;;;2.50;;
18159;SDS011;9205;52.032;4.314;2023-04-30T11:13:04;3.83;;;2.30;;
18159;SDS011;9205;52.032;4.314;2023-04-30T11:15:40;4.47;;;2.63;;
18159;SDS011;9205;52.032;4.314;2023-04-30T11:18:12;2.97;;;2.23;;
18159;SDS011;9205;52.032;4.314;2023-04-30T11:20:40;4.27;;;2.73;;
18159;SDS011;9205;52.032;4.314;2023-04-30T11:23:15;2.60;;;1.63;;
18159;SDS011;9205;52.032;4.314;2023-04-30T11:25:51;1.87;;;1.57;;
18159;SDS011;9205;52.032;4.314;2023-04-30T11:28:21;3.40;;;1.90;;
18159;SDS011;9205;52.032;4.314;2023-04-30T11:30:52;2.90;;;1.90;;
18159;SDS011;9205;52.032;4.314;2023-04-30T11:33:22;4.63;;;2.47;;
18159;SDS011;9205;52.032;4.314;2023-04-30T11:35:51;6.53;;;2.60;;
18159;SDS011;9205;52.032;4.314;2023-04-30T11:38:20;5.43;;;2.93;;
18159;SDS011;9205;52.032;4.314;2023-04-30T11:40:52;5.13;;;2.47;;
18159;SDS011;9205;52.032;4.314;2023-04-30T11:43:23;5.23;;;2.57;;
18159;SDS011;9205;52.032;4.314;2023-04-30T11:46:02;3.20;;;1.67;;
18159;SDS011;9205;52.032;4.314;2023-04-30T11:48:33;2.27;;;1.50;;
18159;SDS011;9205;52.032;4.314;2023-04-30T11:51:02;2.13;;;1.50;;
18159;SDS011;9205;52.032;4.314;2023-04-30T11:53:31;3.30;;;1.60;;
18159;SDS011;9205;52.032;4.314;2023-04-30T11:56:02;3.17;;;1.70;;
18159;SDS011;9205;52.032;4.314;2023-04-30T11:58:33;2.30;;;1.80;;
18159;SDS011;9205;52.032;4.314;2023-04-30T12:01:05;2.00;;;1.40;;
18159;SDS011;9205;52.032;4.314;2023-04-30T12:03:39;1.87;;;1.47;;
18159;SDS011;9205;52.032;4.314;2023-04-30T12:06:08;2.47;;;1.87;;
18159;SDS011;9205;52.032;4.314;2023-04-30T12:08:37;2.37;;;1.70;;
18159;SDS011;9205;52.032;4.314;2023-04-30T12:11:17;3.53;;;2.20;;
18159;SDS011;9205;52.032;4.314;2023-04-30T12:13:51;4.00;;;1.87;;
18159;SDS011;9205;52.032;4.314;2023-04-30T12:16:21;2.40;;;1.87;;
18159;SDS011;9205;52.032;4.314;2023-04-30T12:18:50;3.53;;;1.90;;
18159;SDS011;9205;52.032;4.314;2023-04-30T12:21:17;3.77;;;2.53;;
18159;SDS011;9205;52.032;4.314;2023-04-30T12:23:46;4.33;;;2.60;;
18159;SDS011;9205;52.032;4.314;2023-04-30T12:26:14;2.73;;;2.00;;
18159;SDS011;9205;52.032;4.314;2023-04-30T12:28:41;3.60;;;2.20;;
18159;SDS011;9205;52.032;4.314;2023-04-30T12:31:09;2.80;;;1.80;;
18159;SDS011;9205;52.032;4.314;2023-04-30T12:33:37;3.17;;;1.80;;
18159;SDS011;9205;52.032;4.314;2023-04-30T12:36:08;1.53;;;1.20;;
18159;SDS011;9205;52.032;4.314;2023-04-30T12:38:36;2.50;;;1.97;;
18159;SDS011;9205;52.032;4.314;2023-04-30T12:41:03;2.60;;;1.60;;
18159;SDS011;9205;52.032;4.314;2023-04-30T12:43:31;2.27;;;1.70;;
18159;SDS011;9205;52.032;4.314;2023-04-30T12:45:58;3.63;;;2.00;;
18159;SDS011;9205;52.032;4.314;2023-04-30T12:48:25;4.23;;;2.50;;
18159;SDS011;9205;52.032;4.314;2023-04-30T12:50:54;4.40;;;2.70;;
18159;SDS011;9205;52.032;4.314;2023-04-30T12:53:24;3.23;;;2.20;;
18159;SDS011;9205;52.032;4.314;2023-04-30T12:56:08;2.43;;;1.97;;
18159;SDS011;9205;52.032;4.314;2023-04-30T12:58:38;3.93;;;2.00;;
18159;SDS011;9205;52.032;4.314;2023-04-30T13:01:09;4.50;;;2.57;;
18159;SDS011;9205;52.032;4.314;2023-04-30T13:03:37;3.20;;;2.03;;
18159;SDS011;9205;52.032;4.314;2023-04-30T13:06:06;4.87;;;2.70;;
18159;SDS011;9205;52.032;4.314;2023-04-30T13:08:34;4.27;;;2.83;;
18159;SDS011;9205;52.032;4.314;2023-04-30T13:11:02;4.03;;;2.20;;
18159;SDS011;9205;52.032;4.314;2023-04-30T13:13:29;4.10;;;2.30;;
18159;SDS011;9205;52.032;4.314;2023-04-30T13:15:57;4.53;;;2.60;;
18159;SDS011;9205;52.032;4.314;2023-04-30T13:18:24;3.13;;;2.30;;
18159;SDS011;9205;52.032;4.314;2023-04-30T13:20:52;3.43;;;2.40;;
18159;SDS011;9205;52.032;4.314;2023-04-30T13:23:20;2.53;;;2.00;;
18159;SDS011;9205;52.032;4.314;2023-04-30T13:25:47;3.27;;;2.10;;
18159;SDS011;9205;52.032;4.314;2023-04-30T13:28:14;1.93;;;1.50;;
18159;SDS011;9205;52.032;4.314;2023-04-30T13:30:42;1.80;;;1.40;;
18159;SDS011;9205;52.032;4.314;2023-04-30T13:33:09;1.83;;;1.47;;
18159;SDS011;9205;52.032;4.314;2023-04-30T13:35:37;1.97;;;1.60;;
18159;SDS011;9205;52.032;4.314;2023-04-30T13:38:04;2.30;;;1.40;;
18159;SDS011;9205;52.032;4.314;2023-04-30T13:40:33;3.33;;;1.47;;
18159;SDS011;9205;52.032;4.314;2023-04-30T13:43:00;1.60;;;1.30;;
18159;SDS011;9205;52.032;4.314;2023-04-30T13:45:28;2.33;;;1.53;;
18159;SDS011;9205;52.032;4.314;2023-04-30T13:47:55;1.30;;;1.20;;
18159;SDS011;9205;52.032;4.314;2023-04-30T13:50:22;2.43;;;2.03;;
18159;SDS011;9205;52.032;4.314;2023-04-30T13:52:50;2.20;;;1.60;;
18159;SDS011;9205;52.032;4.314;2023-04-30T13:55:17;1.40;;;1.30;;
18159;SDS011;9205;52.032;4.314;2023-04-30T13:57:46;2.60;;;1.40;;
18159;SDS011;9205;52.032;4.314;2023-04-30T14:00:14;2.33;;;1.30;;
18159;SDS011;9205;52.032;4.314;2023-04-30T14:02:41;1.73;;;1.30;;
18159;SDS011;9205;52.032;4.314;2023-04-30T14:05:10;2.57;;;1.30;;
18159;SDS011;9205;52.032;4.314;2023-04-30T14:07:37;1.20;;;1.10;;
18159;SDS011;9205;52.032;4.314;2023-04-30T14:10:04;1.37;;;1.10;;
18159;SDS011;9205;52.032;4.314;2023-04-30T14:12:33;1.27;;;1.10;;
18159;SDS011;9205;52.032;4.314;2023-04-30T14:15:02;1.10;;;0.90;;
18159;SDS011;9205;52.032;4.314;2023-04-30T14:17:29;1.50;;;1.30;;
18159;SDS011;9205;52.032;4.314;2023-04-30T14:19:57;0.80;;;0.80;;
18159;SDS011;9205;52.032;4.314;2023-04-30T14:22:24;3.03;;;0.97;;
18159;SDS011;9205;52.032;4.314;2023-04-30T14:24:51;3.13;;;1.10;;
18159;SDS011;9205;52.032;4.314;2023-04-30T14:27:19;1.77;;;1.10;;
18159;SDS011;9205;52.032;4.314;2023-04-30T14:29:46;1.20;;;1.10;;
18159;SDS011;9205;52.032;4.314;2023-04-30T14:32:15;1.10;;;1.00;;
18159;SDS011;9205;52.032;4.314;2023-04-30T14:34:42;0.70;;;0.70;;
18159;SDS011;9205;52.032;4.314;2023-04-30T14:37:10;0.70;;;0.70;;
18159;SDS011;9205;52.032;4.314;2023-04-30T14:39:37;1.50;;;1.10;;
18159;SDS011;9205;52.032;4.314;2023-04-30T14:42:04;1.77;;;1.30;;
18159;SDS011;9205;52.032;4.314;2023-04-30T14:44:31;1.63;;;1.13;;
18159;SDS011;9205;52.032;4.314;2023-04-30T14:46:58;1.87;;;1.00;;
18159;SDS011;9205;52.032;4.314;2023-04-30T14:49:27;1.10;;;0.80;;
18159;SDS011;9205;52.032;4.314;2023-04-30T14:51:55;1.10;;;1.00;;
18159;SDS011;9205;52.032;4.314;2023-04-30T14:54:22;0.80;;;0.80;;
18159;SDS011;9205;52.032;4.314;2023-04-30T14:56:49;0.80;;;0.80;;
18159;SDS011;9205;52.032;4.314;2023-04-30T14:59:17;1.43;;;0.90;;
18159;SDS011;9205;52.032;4.314;2023-04-30T15:01:44;1.10;;;1.00;;
18159;SDS011;9205;52.032;4.314;2023-04-30T15:04:11;0.97;;;0.80;;
18159;SDS011;9205;52.032;4.314;2023-04-30T15:06:40;0.70;;;0.70;;
18159;SDS011;9205;52.032;4.314;2023-04-30T15:09:07;1.30;;;0.80;;